KTTD/TTD METAR and TAF weather

Enter ICAO airport designator
Station Type Date Time Source
KTTD METAR 2023/01/29 17:53 UTC NOAA

KTTD 291753Z 06017G23KT 10SM CLR 02/M15 A3046 RMK AO2 SLP313 T00221150 10022 21006 51021


Station Type Date Time Source
KTTD Decoded METAR 2023/01/29 17:53 UTC NOAA

PORTLAND-TROUTDALE AIRPORT, OR, United States (KTTD) 45-33N 122-25W 14M
Jan 29, 2023 - 12:53 PM EST / 2023.01.29 1753 UTC
Wind: from the ENE (060 degrees) at 20 MPH (17 KT) gusting to 26 MPH (23 KT):0
Visibility: 10 mile(s):0
Sky conditions: clear
Temperature: 36.0 F (2.2 C)
Dew Point: 5.0 F (-15.0 C)
Relative Humidity: 26%
Pressure (altimeter): 30.46 in. Hg (1031 hPa)
Pressure tendency: 0.06 inches (2.1 hPa) higher than three hours ago
ob: KTTD 291753Z 06017G23KT 10SM CLR 02/M15 A3046 RMK AO2 SLP313 T00221150 10022 21006 51021
cycle: 18

Station Type Date Time Source
KTTD TAF 2023/01/29 18:39 UTC NOAA

TAF KTTD 291736Z 2918/3018 07013G20KT P6SM SKC
FM292100 07016G25KT P6SM SKC
FM300000 07010G20KT P6SM SKC
FM300600 08010G15KT P6SM SKC

Example: see airport list